Ambrosia Lake, New Mexico
Current Conditions -  °F | °C
As of 11:37 AM on Sunday 23 Nov 2014 (Local Time) from KGNT Reporting Station
Scattered Clouds Scattered Clouds  
Wind Chill: 30°   Ceiling: Unl
Heat Index: 41°   Visibility: 10mi
Dew Point: 10°   Wind: 29mph
Humidity: 29%   Direction: 300°WNW
Pressure: 29.95"   Gusts: 40mph
Location:  35.2644°N, 107.733°W
Report Text: KGNT 231837Z AUTO 30025G35KT 10SM SCT046 SCT050 05/M12 A2995 RMK AO2
Loading
Personal Weather Stations






























Interactive Weather Map New forecast layout! Learn more

10-Day Weather Forecast

Advertisements
Track Severe Weather on mobile